WetterOnline ( https://www.wetteronline.de )

Wetter aktuell Freudenstadt (in 700m)

Aktuelles Wetter: Freudenstadt (801m)

6-stündlich | Neueste Meldungen
Ortszeit Temperatur Wetter
So, 19.05. 14:00 14.7° C leicht bewölkt
So, 19.05. 8:00 9.6° C bewölkt
So, 19.05. 2:00 8.8° C bedeckt
Sa, 18.05. 20:00 10.1° C Sprühregen
Sa, 18.05. 14:00 14.7° C bewölkt
Sa, 18.05. 8:00 9.0° C wolkenlos
Sa, 18.05. 2:00 8.5° C bedeckt
Fr, 17.05. 20:00 8.3° C leichter Regen
Ortszeit Temperatur Wetter
So, 19.05. 14:00 14.7° C leicht bewölkt
So, 19.05. 13:50 14.7° C leicht bewölkt
So, 19.05. 13:40 15.3° C leicht bewölkt
So, 19.05. 13:30 13.5° C wolkig
So, 19.05. 13:20 13.5° C wolkig
So, 19.05. 13:10 12.7° C bedeckt
So, 19.05. 13:00 12.8° C bedeckt
So, 19.05. 12:30 11.9° C leichter Regen
So, 19.05. 12:00 12.3° C bedeckt
So, 19.05. 11:30 12.0° C bewölkt
So, 19.05. 11:00 12.6° C bewölkt
Ortszeit Relative Feuchte Sichtweite
So, 19.05. 14:00 67% >70 km
So, 19.05. 8:00 92% 55 km
So, 19.05. 2:00 95% 24 km
Sa, 18.05. 20:00 93% 45 km
Sa, 18.05. 14:00 57% 55 km
Sa, 18.05. 8:00 91% 40 km
Sa, 18.05. 2:00 92% 50 km
Fr, 17.05. 20:00 93% 14 km
Ortszeit Relative Feuchte Sichtweite
So, 19.05. 14:00 67% >70 km
So, 19.05. 13:50 67% -
So, 19.05. 13:40 67% -
So, 19.05. 13:30 74% >70 km
So, 19.05. 13:20 74% -
So, 19.05. 13:10 76% -
So, 19.05. 13:00 77% >70 km
So, 19.05. 12:30 79% 35 km
So, 19.05. 12:00 79% >70 km
So, 19.05. 11:30 78% 50 km
So, 19.05. 11:00 80% >70 km
Ortszeit Niederschlagsmenge Niederschlagsart
So, 19.05. 14:00 0.1 l/m2 in 6 Std. Regen
So, 19.05. 8:00 0.1 l/m2 in 12 Std. -
So, 19.05. 2:00 0.1 l/m2 in 6 Std. Regen
Sa, 18.05. 20:00 3 l/m2 in 12 Std. Regen
Sa, 18.05. 14:00 0.0 l/m2 in 6 Std. -
Sa, 18.05. 8:00 0.3 l/m2 in 12 Std. -
Sa, 18.05. 2:00 0.3 l/m2 in 6 Std. Regen
Fr, 17.05. 20:00 26 l/m2 in 12 Std. Regen
Ortszeit Niederschlagsmenge Niederschlagsart
So, 19.05. 14:00 0.0 l/m2 in 1 Std. Regen
So, 19.05. 13:50 keine Meldung -
So, 19.05. 13:40 keine Meldung -
So, 19.05. 13:30 0.0 l/m2 in 30 Min -
So, 19.05. 13:20 keine Meldung -
So, 19.05. 13:10 keine Meldung -
So, 19.05. 13:00 <0.05 l/m2 in 1 Std. Regen
So, 19.05. 12:30 <0.05 l/m2 in 30 Min -
So, 19.05. 12:00 0.0 l/m2 in 1 Std. -
So, 19.05. 11:30 0.0 l/m2 in 30 Min -
So, 19.05. 11:00 0.0 l/m2 in 1 Std. -
Ortszeit Stärke Spitze Richtung
km/h Bft. km/h Grad Sektor
So, 19.05. 14:00 13 3 30 240° SW
So, 19.05. 8:00 9 2 28 260° W
So, 19.05. 2:00 11 2 40 230° SW
Sa, 18.05. 20:00 22 4 39 270° W
Sa, 18.05. 14:00 11 2 36 290° W
Sa, 18.05. 8:00 18 3 36 230° SW
Sa, 18.05. 2:00 18 3 54 260° W
Fr, 17.05. 20:00 32 5 65 270° W
Ortszeit Stärke Spitze Richtung
km/h Bft. km/h Grad Sektor
So, 19.05. 14:00 13 3 30 240° SW
So, 19.05. 13:50 13 3 - 240° SW
So, 19.05. 13:40 13 3 - 250° W
So, 19.05. 13:30 11 2 22 240° SW
So, 19.05. 13:20 11 2 - 240° SW
So, 19.05. 13:10 13 3 - 250° W
So, 19.05. 13:00 9 2 26 250° W
So, 19.05. 12:30 17 3 26 270° W
So, 19.05. 12:00 13 3 24 270° W
So, 19.05. 11:30 11 2 22 230° SW
So, 19.05. 11:00 11 2 25 240° SW
Ortszeit Untergrenze Bedeckung Gattung
total tief tief mittel hoch
So, 19.05. 14:00 630 m 3/8 3/8 - - -
So, 19.05. 8:00 150 m 7/8 7/8 - - -
So, 19.05. 2:00 5700 m 8/8 8/8 - - -
Sa, 18.05. 20:00 270 m 7/8 7/8 - - -
Sa, 18.05. 14:00 990 m 7/8 7/8 - - -
Sa, 18.05. 8:00 - 0/8 0/8 - - -
Sa, 18.05. 2:00 300 m 8/8 8/8 - - -
Fr, 17.05. 20:00 330 m 8/8 8/8 - - -
Ortszeit Bedeckungsgrad in Achtel und Wolkenuntergrenze
So, 19.05. 14:00 1(630m) 3(1500m)
So, 19.05. 13:50 1(630m) 2(750m) 3(1500m)
So, 19.05. 13:40 3
So, 19.05. 13:30 2(540m) 6(1500m)
So, 19.05. 13:20 2(540m) 6(1500m)
So, 19.05. 13:10 8
So, 19.05. 13:00 1(510m) 4(1200m) 8(1500m)
So, 19.05. 12:30 3(480m) 7(1110m) 8(1500m)
So, 19.05. 12:00 4(390m) 6(1020m) 8(1800m)
So, 19.05. 11:30 4(450m) 7(900m) 7(1140m)
So, 19.05. 11:00 3(330m) 7(780m) 7(930m)
Ortszeit Stationsdruck (hPa) Tendenz (hPa in 3 Std.)
So, 19.05. 14:00 921 - 0,3
So, 19.05. 8:00 920 + 0,5
So, 19.05. 2:00 920 - 0,3
Sa, 18.05. 20:00 920 + 0,8
Sa, 18.05. 14:00 921 0,0
Sa, 18.05. 8:00 920 + 0,9
Sa, 18.05. 2:00 919 + 0,5
Fr, 17.05. 20:00 917 + 0,7
Ortszeit Stationsdruck (hPa) Tendenz (hPa in 3 Std.)
So, 19.05. 14:00 921 - 0,3
So, 19.05. 13:50 921 keine Meldung
So, 19.05. 13:40 921 keine Meldung
So, 19.05. 13:30 921 - 0,1
So, 19.05. 13:20 921 keine Meldung
So, 19.05. 13:10 921 keine Meldung
So, 19.05. 13:00 921 0,0
So, 19.05. 12:30 921 + 0,2
So, 19.05. 12:00 921 + 0,3
So, 19.05. 11:30 921 + 0,7
So, 19.05. 11:00 921 + 0,6
Ortszeit Schneehöhe (cm)
So, 19.05. 14:00 -
So, 19.05. 8:00 0
So, 19.05. 2:00 0
Sa, 18.05. 20:00 0
Sa, 18.05. 14:00 0
Sa, 18.05. 8:00 0
Sa, 18.05. 2:00 0
Fr, 17.05. 20:00 0
Ortszeit Schneehöhe (cm)
So, 19.05. 14:00 -
So, 19.05. 13:50 -
So, 19.05. 13:40 -
So, 19.05. 13:30 0
So, 19.05. 13:20 0
So, 19.05. 13:10 -
So, 19.05. 13:00 0
So, 19.05. 12:30 0
So, 19.05. 12:00 0
So, 19.05. 11:30 0
So, 19.05. 11:00 0
Link zu dieser Seite / Seite empfehlen

Das Wetter in ...